Time;durP1;ratioP1;P1;durP2;ratioP2;P2;SDS_P1;SDS_P2;PMS_P1;PMS_P2;Temp;Humidity;BMP_temperature;BMP_pressure;BME280_temperature;BME280_humidity;BME280_pressure;Samples;Min_cycle;Max_cycle;Signal;HPM_P1;HPM_P2
2024/04/20 00:00:27;;;;;;;0.90;0.90;;;;;;;4.17;100.00;97494.03;6099970;19;20035;-75
2024/04/20 00:02:27;;;;;;;2.28;1.10;;;;;;;4.13;100.00;97476.72;6103135;19;20024;-75
2024/04/20 00:04:27;;;;;;;1.48;0.95;;;;;;;4.12;100.00;97472.41;6101821;19;20443;-75
2024/04/20 00:06:28;;;;;;;1.60;1.50;;;;;;;4.06;100.00;97477.38;6103200;19;20455;-75
2024/04/20 00:08:29;;;;;;;1.20;1.10;;;;;;;4.07;100.00;97476.22;6101599;19;20120;-74
2024/04/20 00:10:29;;;;;;;1.92;1.27;;;;;;;4.06;100.00;97493.81;6102315;19;20045;-75
2024/04/20 00:12:30;;;;;;;1.75;1.40;;;;;;;4.04;100.00;97478.88;6101805;19;20011;-75
2024/04/20 00:14:32;;;;;;;1.52;1.33;;;;;;;4.14;100.00;97478.31;6103042;19;20043;-75
2024/04/20 00:16:32;;;;;;;1.88;1.67;;;;;;;4.13;100.00;97488.44;6102070;19;20018;-75
2024/04/20 00:18:39;;;;;;;1.45;1.20;;;;;;;4.18;100.00;97496.38;6100417;19;20002;-74
2024/04/20 00:20:39;;;;;;;1.40;1.10;;;;;;;4.21;100.00;97494.88;6101144;19;20018;-75
2024/04/20 00:22:39;;;;;;;1.40;1.27;;;;;;;4.17;100.00;97488.53;6102321;19;20006;-74
2024/04/20 00:24:40;;;;;;;1.40;1.30;;;;;;;4.19;100.00;97500.72;6102668;19;20351;-74
2024/04/20 00:26:40;;;;;;;1.50;1.20;;;;;;;4.18;100.00;97499.13;6102140;19;20006;-75
2024/04/20 00:28:40;;;;;;;1.63;1.30;;;;;;;4.14;100.00;97502.97;6101234;19;20372;-75
2024/04/20 00:30:41;;;;;;;2.42;1.10;;;;;;;4.18;100.00;97504.59;6101001;19;20306;-75
2024/04/20 00:32:41;;;;;;;1.90;1.40;;;;;;;4.11;100.00;97503.66;6099823;19;20359;-75
2024/04/20 00:34:41;;;;;;;1.23;1.08;;;;;;;4.20;100.00;97506.97;6101446;19;20013;-75
2024/04/20 00:36:41;;;;;;;1.10;1.00;;;;;;;4.20;100.00;97515.19;6103027;19;20010;-75
2024/04/20 00:38:42;;;;;;;1.73;1.20;;;;;;;4.20;100.00;97513.25;6098656;19;20385;-75
2024/04/20 00:40:42;;;;;;;1.30;1.20;;;;;;;4.18;100.00;97517.50;6105552;19;20009;-76
2024/04/20 00:42:43;;;;;;;1.52;1.35;;;;;;;4.19;100.00;97517.13;6110565;19;20006;-75
2024/04/20 00:44:43;;;;;;;1.08;0.98;;;;;;;4.20;100.00;97521.47;6109226;19;20011;-75
2024/04/20 00:46:45;;;;;;;1.60;1.40;;;;;;;4.13;100.00;97531.47;6109332;19;20045;-75
2024/04/20 00:48:46;;;;;;;1.10;1.00;;;;;;;4.16;100.00;97519.81;6107356;19;20006;-75
2024/04/20 00:50:47;;;;;;;1.65;1.30;;;;;;;4.15;100.00;97529.97;6109298;19;20513;-75
2024/04/20 00:52:48;;;;;;;1.48;1.10;;;;;;;4.16;100.00;97538.97;6107178;19;20007;-75
2024/04/20 00:54:48;;;;;;;1.40;1.30;;;;;;;4.13;100.00;97540.47;6106059;19;20485;-75
2024/04/20 00:56:49;;;;;;;2.55;1.60;;;;;;;4.07;100.00;97554.81;6108661;19;20327;-75
2024/04/20 00:58:50;;;;;;;2.15;1.40;;;;;;;4.13;100.00;97556.09;6108040;19;20010;-75
2024/04/20 01:00:51;;;;;;;2.03;1.52;;;;;;;4.06;100.00;97548.56;6107296;19;20002;-75
2024/04/20 01:02:52;;;;;;;2.13;1.80;;;;;;;4.03;100.00;97567.63;6106321;19;20006;-74
2024/04/20 01:04:52;;;;;;;2.47;1.45;;;;;;;4.04;100.00;97552.78;6109147;19;20400;-75
2024/04/20 01:06:52;;;;;;;1.75;1.55;;;;;;;4.03;100.00;97562.94;6108843;19;20453;-75
2024/04/20 01:08:55;;;;;;;1.58;1.30;;;;;;;4.04;100.00;97563.72;6106152;19;20003;-75
2024/04/20 01:10:56;;;;;;;;;;;;;;;4.03;100.00;97565.66;6107885;19;20463;-75
2024/04/20 01:13:03;;;;;;;3.30;1.20;;;;;;;4.00;100.00;97569.13;6107464;19;19907;-74
2024/04/20 01:15:05;;;;;;;1.55;1.33;;;;;;;4.03;100.00;97565.66;6110021;19;20006;-75
2024/04/20 01:17:05;;;;;;;2.40;1.83;;;;;;;4.00;100.00;97562.88;6106703;19;20082;-75
2024/04/20 01:19:11;;;;;;;1.20;1.10;;;;;;;4.02;100.00;97576.97;6107917;19;20454;-75
2024/04/20 01:21:12;;;;;;;1.80;1.50;;;;;;;4.00;100.00;97577.34;6108079;19;20086;-75
2024/04/20 01:23:13;;;;;;;2.45;1.50;;;;;;;4.05;100.00;97590.75;6109432;19;20062;-75
2024/04/20 01:25:14;;;;;;;1.77;1.42;;;;;;;4.04;100.00;97589.16;6106739;19;20016;-76
2024/04/20 01:27:14;;;;;;;1.30;1.20;;;;;;;4.07;100.00;97582.97;6109204;19;20470;-76
2024/04/20 01:29:15;;;;;;;5.63;1.60;;;;;;;4.04;100.00;97599.31;6106255;19;20002;-75
2024/04/20 01:31:15;;;;;;;1.95;1.17;;;;;;;4.05;100.00;97609.09;6106097;19;20038;-75
2024/04/20 01:33:16;;;;;;;1.55;1.45;;;;;;;4.00;100.00;97593.75;6108170;19;20623;-76
2024/04/20 01:35:18;;;;;;;1.70;1.20;;;;;;;4.00;100.00;97603.94;6108784;19;20014;-75
2024/04/20 01:37:18;;;;;;;2.35;1.60;;;;;;;4.03;100.00;97597.72;6108708;19;20270;-75
2024/04/20 01:39:19;;;;;;;1.98;1.50;;;;;;;4.03;100.00;97627.84;6108201;19;20021;-75
2024/04/20 01:41:19;;;;;;;1.90;1.70;;;;;;;4.00;100.00;97625.81;6107480;19;20007;-75
2024/04/20 01:43:20;;;;;;;1.20;1.10;;;;;;;4.03;100.00;97614.94;6109506;19;20006;-75
2024/04/20 01:45:20;;;;;;;1.40;1.30;;;;;;;4.03;100.00;97630.56;6107519;19;20009;-76
2024/04/20 01:47:28;;;;;;;2.65;1.20;;;;;;;4.00;100.00;97623.09;6108072;19;19999;-75
2024/04/20 01:49:28;;;;;;;3.10;1.40;;;;;;;4.03;100.00;97636.03;6106722;19;20003;-75
2024/04/20 01:51:28;;;;;;;1.92;1.48;;;;;;;3.97;100.00;97634.72;6107831;19;20495;-75
2024/04/20 01:53:29;;;;;;;1.27;1.08;;;;;;;3.99;100.00;97635.19;6108081;19;20038;-75
2024/04/20 01:55:29;;;;;;;1.55;1.38;;;;;;;3.98;100.00;97634.38;6108706;19;19999;-76
2024/04/20 01:57:30;;;;;;;1.83;1.63;;;;;;;4.00;100.00;97651.25;6107534;19;20446;-76
2024/04/20 01:59:31;;;;;;;1.30;1.20;;;;;;;3.99;100.00;97654.34;6106101;19;20007;-75
2024/04/20 02:01:35;;;;;;;2.30;1.40;;;;;;;3.99;100.00;97657.06;6107024;19;20017;-75
2024/04/20 02:03:35;;;;;;;1.73;1.40;;;;;;;3.97;100.00;97653.88;6108041;19;20474;-75
2024/04/20 02:05:35;;;;;;;1.35;1.25;;;;;;;3.98;100.00;97661.75;6107024;19;20002;-74
2024/04/20 02:07:36;;;;;;;1.27;0.90;;;;;;;4.04;100.00;97665.78;6106451;19;20308;-75
2024/04/20 02:09:36;;;;;;;1.40;1.30;;;;;;;4.04;100.00;97670.47;6106364;19;20003;-75
2024/04/20 02:11:37;;;;;;;2.65;1.52;;;;;;;3.99;100.00;97682.50;6106778;19;20462;-75
2024/04/20 02:13:37;;;;;;;1.42;1.23;;;;;;;3.98;100.00;97677.38;6106053;19;20258;-75
2024/04/20 02:15:37;;;;;;;1.20;1.10;;;;;;;4.02;100.00;97672.78;6107404;19;20026;-76
2024/04/20 02:17:37;;;;;;;1.67;1.40;;;;;;;4.04;100.00;97678.69;6106844;19;20700;-76
2024/04/20 02:19:38;;;;;;;1.20;1.10;;;;;;;4.02;100.00;97684.53;6106438;19;20384;-75
2024/04/20 02:21:38;;;;;;;1.30;1.20;;;;;;;3.98;100.00;97689.13;6107176;19;20024;-75
2024/04/20 02:23:41;;;;;;;0.93;0.93;;;;;;;4.00;100.00;97689.56;6107140;19;20028;-75
2024/04/20 02:25:41;;;;;;;;;;;;;;;3.96;100.00;97702.34;6106737;19;20006;-75
2024/04/20 02:27:41;;;;;;;1.42;1.27;;;;;;;3.95;100.00;97689.81;6108114;19;20382;-75
2024/04/20 02:29:41;;;;;;;1.45;1.10;;;;;;;3.97;100.00;97703.16;6105885;19;20082;-74
2024/04/20 02:31:42;;;;;;;1.65;1.42;;;;;;;3.97;100.00;97705.88;6106054;19;20019;-75
2024/04/20 02:33:42;;;;;;;1.38;1.08;;;;;;;3.97;100.00;97703.94;6104272;19;20464;-75
2024/04/20 02:35:42;;;;;;;1.10;1.00;;;;;;;3.96;100.00;97716.03;6107470;19;20023;-75
2024/04/20 02:37:43;;;;;;;1.77;1.45;;;;;;;3.94;100.00;97718.34;6106753;19;20003;-74
2024/04/20 02:39:48;;;;;;;1.00;0.93;;;;;;;3.93;100.00;97723.03;6106068;19;20027;-75
2024/04/20 02:41:48;;;;;;;1.67;1.38;;;;;;;3.93;100.00;97728.50;6110104;19;20506;-74
2024/04/20 02:43:48;;;;;;;1.95;1.30;;;;;;;3.91;100.00;97730.78;6114242;19;20007;-74
2024/04/20 02:45:49;;;;;;;1.85;1.27;;;;;;;3.93;100.00;97742.19;6108774;19;20074;-75
2024/04/20 02:47:49;;;;;;;1.63;1.30;;;;;;;3.92;100.00;97743.31;6112495;19;20029;-74
2024/04/20 02:49:52;;;;;;;0.90;0.90;;;;;;;3.89;100.00;97746.00;6110832;19;20011;-75
2024/04/20 02:51:52;;;;;;;1.98;1.50;;;;;;;3.86;100.00;97736.50;6112913;19;20011;-75
2024/04/20 02:53:52;;;;;;;3.13;1.70;;;;;;;3.86;100.00;97749.41;6112000;19;20024;-75
2024/04/20 02:55:53;;;;;;;1.30;1.10;;;;;;;3.86;100.00;97736.50;6112076;19;20015;-75
2024/04/20 02:57:53;;;;;;;1.77;1.40;;;;;;;3.84;100.00;97748.97;6111998;19;20007;-74
2024/04/20 02:59:53;;;;;;;2.15;1.48;;;;;;;3.85;100.00;97751.34;6109343;19;20014;-75
2024/04/20 03:01:54;;;;;;;2.50;2.00;;;;;;;3.83;100.00;97750.13;6112159;19;20011;-75
2024/04/20 03:03:54;;;;;;;1.63;1.45;;;;;;;3.86;100.00;97761.16;6112976;19;20010;-74
2024/04/20 03:05:55;;;;;;;2.22;1.77;;;;;;;3.84;100.00;97762.66;6111022;19;20007;-75
2024/04/20 03:07:55;;;;;;;2.30;1.67;;;;;;;3.83;100.00;97759.13;6108447;19;20622;-75
2024/04/20 03:09:55;;;;;;;3.03;1.80;;;;;;;3.79;100.00;97760.16;6110581;19;20007;-74
2024/04/20 03:11:56;;;;;;;1.73;1.48;;;;;;;3.82;100.00;97762.22;6110848;19;20042;-74
2024/04/20 03:13:56;;;;;;;3.80;2.03;;;;;;;3.83;100.00;97763.81;6111464;19;20014;-74
2024/04/20 03:16:00;;;;;;;1.98;1.58;;;;;;;3.78;100.00;97778.53;6111072;19;20040;-74
2024/04/20 03:18:02;;;;;;;2.20;1.83;;;;;;;3.81;100.00;97777.03;6108758;19;20024;-74
2024/04/20 03:20:03;;;;;;;2.00;1.73;;;;;;;3.81;100.00;97775.09;6107466;19;20014;-74
2024/04/20 03:22:04;;;;;;;2.83;2.25;;;;;;;3.77;100.00;97787.09;6110296;19;20455;-74
2024/04/20 03:24:04;;;;;;;3.00;2.10;;;;;;;3.79;100.00;97785.59;6111054;19;19994;-74
2024/04/20 03:26:06;;;;;;;2.95;1.90;;;;;;;3.78;100.00;97796.88;6109585;19;20003;-74
2024/04/20 03:28:06;;;;;;;2.63;2.00;;;;;;;3.75;100.00;97803.84;6109309;19;20003;-74
2024/04/20 03:30:06;;;;;;;2.33;1.88;;;;;;;3.75;100.00;97795.66;6108376;19;20536;-75
2024/04/20 03:32:07;;;;;;;2.80;1.80;;;;;;;3.72;100.00;97812.75;6109951;19;20118;-74
2024/04/20 03:34:07;;;;;;;2.95;2.40;;;;;;;3.73;100.00;97813.56;6107597;19;19995;-74
2024/04/20 03:36:07;;;;;;;3.35;2.42;;;;;;;3.73;100.00;97808.09;6108256;19;20038;-75
2024/04/20 03:38:07;;;;;;;2.75;2.30;;;;;;;3.72;100.00;97815.47;6109966;19;20359;-75
2024/04/20 03:40:08;;;;;;;3.60;2.58;;;;;;;3.67;100.00;97818.50;6098953;19;20015;-74
2024/04/20 03:42:08;;;;;;;3.00;2.20;;;;;;;3.64;100.00;97814.50;6109948;19;20054;-75
2024/04/20 03:44:09;;;;;;;2.40;1.92;;;;;;;3.67;100.00;97832.97;6108154;19;20030;-75
2024/04/20 03:46:09;;;;;;;2.45;2.05;;;;;;;3.71;100.00;97826.78;6109098;19;20003;-75
2024/04/20 03:48:09;;;;;;;2.15;1.70;;;;;;;3.70;100.00;97834.19;6108953;19;20010;-74
2024/04/20 03:50:10;;;;;;;1.88;1.50;;;;;;;3.69;100.00;97846.28;6107599;19;20519;-75
2024/04/20 03:52:10;;;;;;;5.90;1.80;;;;;;;3.71;100.00;97835.78;6109314;19;20013;-74
2024/04/20 03:54:10;;;;;;;3.45;2.53;;;;;;;3.72;100.00;97855.72;6108633;19;20486;-75
2024/04/20 03:56:11;;;;;;;2.67;1.98;;;;;;;3.70;100.00;97853.34;6108828;19;19998;-74
2024/04/20 03:58:11;;;;;;;3.20;1.88;;;;;;;3.66;100.00;97856.00;6109275;19;20014;-75
2024/04/20 04:00:12;;;;;;;3.45;2.58;;;;;;;3.66;100.00;97861.47;6107829;19;20006;-75
2024/04/20 04:02:12;;;;;;;4.00;2.30;;;;;;;3.64;100.00;97866.50;6108983;19;20011;-75
2024/04/20 04:04:13;;;;;;;6.68;2.20;;;;;;;3.66;100.00;97875.16;6109390;19;20736;-75
2024/04/20 04:06:13;;;;;;;2.55;1.85;;;;;;;3.67;100.00;97882.19;6110030;19;20318;-75
2024/04/20 04:08:13;;;;;;;2.70;2.00;;;;;;;3.65;100.00;97879.03;6107702;19;20017;-75
2024/04/20 04:10:14;;;;;;;3.05;2.40;;;;;;;3.66;100.00;97899.75;6109458;19;20003;-75
2024/04/20 04:12:14;;;;;;;2.08;1.63;;;;;;;3.65;100.00;97884.50;6109402;19;20010;-75
2024/04/20 04:14:14;;;;;;;2.83;2.10;;;;;;;3.62;100.00;97901.59;6109151;19;20002;-75
2024/04/20 04:16:15;;;;;;;2.30;1.60;;;;;;;3.62;100.00;97901.59;6108061;19;20826;-74
2024/04/20 04:18:15;;;;;;;2.17;1.90;;;;;;;3.60;100.00;97901.16;6106103;19;20011;-75
2024/04/20 04:20:15;;;;;;;3.83;2.30;;;;;;;3.59;100.00;97912.44;6107522;19;20371;-75
2024/04/20 04:22:16;;;;;;;2.05;1.65;;;;;;;3.61;100.00;97912.88;6109087;19;20007;-74
2024/04/20 04:24:16;;;;;;;2.22;1.55;;;;;;;3.59;100.00;97920.66;6109750;19;20649;-75
2024/04/20 04:26:16;;;;;;;2.30;1.63;;;;;;;3.54;100.00;97932.59;6106504;19;20007;-74
2024/04/20 04:28:17;;;;;;;2.72;2.22;;;;;;;3.49;100.00;97929.34;6104857;19;20058;-74
2024/04/20 04:30:17;;;;;;;2.28;1.88;;;;;;;3.46;100.00;97933.53;6108518;19;20033;-74
2024/04/20 04:32:17;;;;;;;2.55;2.00;;;;;;;3.49;100.00;97934.81;6108652;19;20010;-75
2024/04/20 04:34:18;;;;;;;4.38;2.55;;;;;;;3.43;100.00;97945.16;6108259;19;20009;-74
2024/04/20 04:36:18;;;;;;;2.58;1.70;;;;;;;3.42;100.00;97949.06;6108720;19;20007;-75
2024/04/20 04:38:18;;;;;;;2.85;1.90;;;;;;;3.39;100.00;97949.72;6107487;19;20007;-75
2024/04/20 04:40:19;;;;;;;2.75;1.90;;;;;;;3.45;100.00;97953.03;6102660;19;20090;-74
2024/04/20 04:42:20;;;;;;;1.48;1.25;;;;;;;3.45;100.00;97961.22;6100959;19;20015;-75
2024/04/20 04:44:20;;;;;;;3.08;2.10;;;;;;;3.40;100.00;97965.00;6101911;19;20027;-74
2024/04/20 04:46:20;;;;;;;2.35;1.85;;;;;;;3.36;100.00;97964.88;6100774;19;20023;-75
2024/04/20 04:48:22;;;;;;;2.63;1.92;;;;;;;3.31;100.00;97967.03;6101155;19;20344;-75
2024/04/20 04:50:22;;;;;;;1.38;1.25;;;;;;;3.34;100.00;97983.56;6100353;19;20820;-75
2024/04/20 04:52:22;;;;;;;3.20;1.90;;;;;;;3.30;100.00;97976.38;6101204;19;20002;-75
2024/04/20 04:54:23;;;;;;;1.90;1.42;;;;;;;3.30;100.00;97979.13;6100515;19;20002;-74
2024/04/20 04:56:23;;;;;;;2.15;1.80;;;;;;;3.28;100.00;97978.66;6100970;19;20002;-74
2024/04/20 04:58:23;;;;;;;2.45;1.70;;;;;;;3.29;100.00;97986.53;6100452;19;20391;-75
2024/04/20 05:00:24;;;;;;;4.05;1.85;;;;;;;3.29;100.00;97992.00;6098682;19;20594;-74
2024/04/20 05:02:25;;;;;;;2.30;1.90;;;;;;;3.32;100.00;97999.53;6101301;19;20007;-75
2024/04/20 05:04:26;;;;;;;3.30;2.42;;;;;;;3.29;100.00;97997.47;6099342;19;20005;-74
2024/04/20 05:06:28;;;;;;;2.95;2.15;;;;;;;3.28;100.00;98001.34;6100677;19;20014;-75
2024/04/20 05:08:28;;;;;;;2.50;2.30;;;;;;;3.31;100.00;98010.78;6099216;19;20378;-75
2024/04/20 05:10:29;;;;;;;2.38;1.48;;;;;;;3.30;100.00;98015.47;6099571;19;20002;-74
2024/04/20 05:12:30;;;;;;;2.65;1.95;;;;;;;3.30;100.00;98010.00;6102041;19;20038;-75
2024/04/20 05:14:30;;;;;;;3.28;2.53;;;;;;;3.28;100.00;98023.22;6097631;19;19995;-74
2024/04/20 05:16:30;;;;;;;2.72;2.28;;;;;;;3.23;100.00;98009.00;6099283;19;20014;-74
2024/04/20 05:18:31;;;;;;;6.13;2.78;;;;;;;3.22;100.00;98030.03;6100666;19;20397;-74
2024/04/20 05:20:31;;;;;;;2.10;1.75;;;;;;;3.23;100.00;98030.88;6097899;19;20028;-75
2024/04/20 05:22:32;;;;;;;3.22;2.28;;;;;;;3.22;100.00;98040.97;6098555;19;19999;-75
2024/04/20 05:24:32;;;;;;;3.03;2.20;;;;;;;3.23;100.00;98039.06;6101063;19;20331;-75
2024/04/20 05:26:32;;;;;;;2.92;2.10;;;;;;;3.19;100.00;98047.13;6099339;19;19999;-75
2024/04/20 05:28:33;;;;;;;2.33;1.90;;;;;;;3.21;100.00;98041.31;6100686;19;20015;-75
2024/04/20 05:30:33;;;;;;;2.75;2.20;;;;;;;3.20;100.00;98047.94;6099363;19;20002;-74
2024/04/20 05:32:34;;;;;;;3.13;2.22;;;;;;;3.16;100.00;98049.75;6101011;19;20006;-74
2024/04/20 05:34:34;;;;;;;3.60;2.38;;;;;;;3.15;100.00;98053.63;6100336;19;20074;-75
2024/04/20 05:36:34;;;;;;;5.70;3.78;;;;;;;3.15;100.00;98062.63;6099662;19;20011;-75
2024/04/20 05:38:35;;;;;;;4.95;3.42;;;;;;;3.09;100.00;98053.84;6100361;19;20028;-75
2024/04/20 05:40:39;;;;;;;4.90;3.80;;;;;;;3.05;100.00;98068.50;6102647;19;19998;-74
2024/04/20 05:42:39;;;;;;;4.28;3.05;;;;;;;2.97;100.00;98061.22;6106490;19;20106;-75
2024/04/20 05:44:40;;;;;;;3.65;2.67;;;;;;;2.87;100.00;98078.03;6104848;19;20110;-75
2024/04/20 05:46:40;;;;;;;2.28;1.88;;;;;;;2.83;100.00;98086.13;6107548;19;20424;-75
2024/04/20 05:48:40;;;;;;;3.58;2.88;;;;;;;2.80;100.00;98092.25;6103956;19;20015;-75
2024/04/20 05:50:41;;;;;;;10.93;5.47;;;;;;;2.77;100.00;98099.19;6106737;19;20013;-75
2024/04/20 05:52:42;;;;;;;8.45;3.72;;;;;;;2.81;100.00;98099.28;6107964;19;19994;-75
2024/04/20 05:54:42;;;;;;;27.17;14.23;;;;;;;2.84;100.00;98100.56;6106801;19;20029;-75
2024/04/20 05:56:42;;;;;;;8.82;4.57;;;;;;;2.86;100.00;98106.50;6105729;19;20003;-75
2024/04/20 05:58:43;;;;;;;6.57;4.55;;;;;;;2.86;100.00;98110.03;6106812;19;20008;-75
2024/04/20 06:00:43;;;;;;;6.72;3.08;;;;;;;2.87;100.00;98111.63;6106440;19;20458;-75
2024/04/20 06:02:43;;;;;;;5.13;3.00;;;;;;;2.94;100.00;98111.09;6108041;19;20722;-75
2024/04/20 06:04:44;;;;;;;10.52;3.20;;;;;;;2.90;100.00;98118.38;6104702;19;20002;-75
2024/04/20 06:06:44;;;;;;;5.22;3.22;;;;;;;2.94;100.00;98135.69;6107966;19;20003;-76
2024/04/20 06:08:45;;;;;;;3.15;2.75;;;;;;;2.91;100.00;98133.63;6105817;19;20006;-75
2024/04/20 06:10:58;;;;;;;3.35;2.58;;;;;;;2.84;100.00;98152.50;6103923;19;19999;-75
2024/04/20 06:12:58;;;;;;;5.07;2.85;;;;;;;2.86;100.00;98142.81;6105237;19;20461;-75
2024/04/20 06:14:59;;;;;;;4.25;2.88;;;;;;;2.86;100.00;98142.81;6106272;19;20764;-75
2024/04/20 06:16:59;;;;;;;6.85;3.92;;;;;;;2.89;100.00;98144.88;6111109;19;20003;-75
2024/04/20 06:18:59;;;;;;;18.75;9.57;;;;;;;2.89;100.00;98146.81;6111742;19;20006;-75
2024/04/20 06:20:59;;;;;;;13.93;6.88;;;;;;;2.94;100.00;98154.81;6111258;19;20078;-75
2024/04/20 06:23:00;;;;;;;21.05;11.00;;;;;;;2.92;100.00;98157.88;6109652;19;20078;-74
2024/04/20 06:25:04;;;;;;;20.17;8.35;;;;;;;2.97;100.00;98167.78;6110888;19;20007;-75
2024/04/20 06:27:04;;;;;;;18.13;8.63;;;;;;;2.94;100.00;98163.81;6111647;19;20018;-75
2024/04/20 06:29:04;;;;;;;10.50;5.63;;;;;;;2.95;100.00;98172.78;6111354;19;20327;-75
2024/04/20 06:31:05;;;;;;;10.73;5.25;;;;;;;2.98;100.00;98172.13;6111502;19;20027;-75
2024/04/20 06:33:05;;;;;;;11.45;6.07;;;;;;;2.98;100.00;98178.41;6110646;19;20003;-75
2024/04/20 06:35:06;;;;;;;5.78;3.63;;;;;;;3.04;100.00;98181.72;6111261;19;20010;-75
2024/04/20 06:37:06;;;;;;;4.47;3.10;;;;;;;3.02;100.00;98190.25;6112555;19;20074;-75
2024/04/20 06:39:07;;;;;;;5.38;3.97;;;;;;;3.05;100.00;98194.25;6110658;19;20032;-75
2024/04/20 06:41:07;;;;;;;9.00;4.55;;;;;;;3.06;100.00;98190.38;6111667;19;20006;-75
2024/04/20 06:43:07;;;;;;;9.23;4.15;;;;;;;3.11;100.00;98192.91;6111965;19;20094;-75
2024/04/20 06:45:08;;;;;;;5.88;3.95;;;;;;;3.16;100.00;98200.91;6111607;19;20069;-75
2024/04/20 06:47:09;;;;;;;6.55;4.88;;;;;;;3.21;100.00;98205.34;6109654;19;20090;-75
2024/04/20 06:49:09;;;;;;;5.70;3.58;;;;;;;3.24;100.00;98199.25;6111196;19;19999;-75
2024/04/20 06:51:09;;;;;;;6.78;4.28;;;;;;;3.21;100.00;98208.88;6109920;19;20066;-75
2024/04/20 06:53:10;;;;;;;7.55;4.50;;;;;;;3.22;100.00;98215.94;6108982;19;20006;-75
2024/04/20 06:55:10;;;;;;;4.22;3.38;;;;;;;3.23;100.00;98217.56;6109740;19;20021;-75
2024/04/20 06:57:11;;;;;;;6.82;4.10;;;;;;;3.23;100.00;98214.84;6111492;19;20010;-76
2024/04/20 06:59:12;;;;;;;3.47;2.80;;;;;;;3.26;100.00;98225.09;6109298;19;20035;-75
2024/04/20 07:01:12;;;;;;;4.43;3.33;;;;;;;3.25;100.00;98223.50;6110643;19;20014;-75
2024/04/20 07:03:12;;;;;;;8.75;4.10;;;;;;;3.23;100.00;98228.50;6109880;19;20401;-76
2024/04/20 07:05:13;;;;;;;10.23;6.22;;;;;;;3.22;100.00;98246.03;6108811;19;20010;-76
2024/04/20 07:07:13;;;;;;;4.28;3.35;;;;;;;3.26;100.00;98238.75;6111153;19;20006;-76
2024/04/20 07:09:14;;;;;;;4.30;3.35;;;;;;;3.26;100.00;98241.50;6107670;19;20003;-75
2024/04/20 07:11:15;;;;;;;5.18;3.55;;;;;;;3.31;100.00;98246.78;6108122;19;20003;-75
2024/04/20 07:13:15;;;;;;;8.90;5.78;;;;;;;3.33;100.00;98252.69;6110915;19;20017;-75
2024/04/20 07:15:15;;;;;;;4.30;3.25;;;;;;;3.48;100.00;98254.03;6110531;19;20018;-75
2024/04/20 07:17:16;;;;;;;6.32;4.20;;;;;;;3.57;100.00;98256.66;6108402;19;20006;-75
2024/04/20 07:19:16;;;;;;;5.57;3.88;;;;;;;3.59;100.00;98254.38;6108200;19;20029;-75
2024/04/20 07:21:16;;;;;;;2.45;2.13;;;;;;;3.67;100.00;98264.44;6108994;19;20074;-75
2024/04/20 07:23:17;;;;;;;4.28;2.80;;;;;;;3.72;100.00;98266.94;6111030;19;20395;-75
2024/04/20 07:25:17;;;;;;;5.25;3.53;;;;;;;3.74;100.00;98267.44;6109579;19;20082;-76
2024/04/20 07:27:17;;;;;;;4.53;3.63;;;;;;;3.80;100.00;98277.00;6106394;19;20018;-75
2024/04/20 07:29:18;;;;;;;2.95;2.45;;;;;;;3.87;100.00;98276.44;6109572;19;20049;-75
2024/04/20 07:31:18;;;;;;;3.50;3.05;;;;;;;3.85;100.00;98282.28;6110512;19;20024;-75
2024/04/20 07:33:18;;;;;;;3.25;2.45;;;;;;;3.85;100.00;98278.75;6108981;19;20381;-76
2024/04/20 07:35:19;;;;;;;4.07;3.10;;;;;;;3.88;100.00;98276.09;6110632;19;20006;-75
2024/04/20 07:37:19;;;;;;;3.70;2.42;;;;;;;3.89;100.00;98285.16;6110467;19;20531;-75
2024/04/20 07:39:19;;;;;;;3.40;2.75;;;;;;;3.99;100.00;98292.91;6110736;19;20014;-75
2024/04/20 07:41:20;;;;;;;3.40;2.95;;;;;;;3.93;100.00;98300.53;6109739;19;20011;-75
2024/04/20 07:43:20;;;;;;;4.72;3.03;;;;;;;4.03;100.00;98295.75;6110939;19;20003;-75
2024/04/20 07:45:20;;;;;;;2.60;1.90;;;;;;;4.17;100.00;98299.78;6110579;19;20503;-75
2024/04/20 07:47:21;;;;;;;3.22;2.35;;;;;;;4.24;100.00;98310.19;6105913;19;20003;-75
2024/04/20 07:49:21;;;;;;;3.17;1.80;;;;;;;4.37;100.00;98303.56;6109728;19;20034;-76
2024/04/20 07:51:21;;;;;;;3.03;2.70;;;;;;;4.44;100.00;98309.28;6109085;19;20467;-76
2024/04/20 07:53:22;;;;;;;2.55;2.03;;;;;;;4.45;100.00;98315.56;6107256;19;20534;-75
2024/04/20 07:55:22;;;;;;;3.78;2.47;;;;;;;4.58;100.00;98322.66;6106022;19;20503;-75
2024/04/20 07:57:23;;;;;;;3.40;2.50;;;;;;;4.61;100.00;98321.97;6108207;19;20007;-74
2024/04/20 07:59:23;;;;;;;2.45;2.25;;;;;;;4.70;100.00;98324.59;6104932;19;20038;-75
2024/04/20 08:01:24;;;;;;;1.80;1.48;;;;;;;4.69;100.00;98326.53;6108008;19;20007;-75
2024/04/20 08:03:24;;;;;;;2.55;1.95;;;;;;;4.62;100.00;98339.19;6110067;19;20006;-74
2024/04/20 08:05:24;;;;;;;3.25;2.25;;;;;;;4.54;100.00;98345.59;6107454;19;20034;-75
2024/04/20 08:07:25;;;;;;;3.75;2.83;;;;;;;4.65;100.00;98335.78;6109281;19;20006;-75
2024/04/20 08:09:25;;;;;;;3.33;2.38;;;;;;;4.68;100.00;98348.81;6109557;19;20093;-76
2024/04/20 08:11:25;;;;;;;4.53;3.00;;;;;;;4.76;100.00;98337.72;6108788;19;20055;-75
2024/04/20 08:13:25;;;;;;;2.88;2.63;;;;;;;4.78;100.00;98357.34;6110714;19;20015;-75
2024/04/20 08:15:26;;;;;;;8.05;4.43;;;;;;;4.80;100.00;98346.09;6109755;19;20011;-75
2024/04/20 08:17:26;;;;;;;8.60;3.08;;;;;;;4.83;100.00;98353.59;6110565;19;20014;-75
2024/04/20 08:19:27;;;;;;;17.05;7.00;;;;;;;4.85;100.00;98356.78;6106782;19;19998;-75
2024/04/20 08:21:27;;;;;;;8.35;4.32;;;;;;;4.82;100.00;98368.47;6107736;19;20574;-74
2024/04/20 08:23:27;;;;;;;3.78;2.83;;;;;;;4.83;100.00;98364.56;6110577;19;20003;-74
2024/04/20 08:25:28;;;;;;;5.63;3.60;;;;;;;4.86;100.00;98374.03;6109828;19;20009;-75
2024/04/20 08:27:30;;;;;;;4.72;3.40;;;;;;;4.88;100.00;98372.56;6107398;19;20041;-75
2024/04/20 08:29:32;;;;;;;4.43;3.13;;;;;;;4.89;100.00;98373.38;6108836;19;20026;-74
2024/04/20 08:31:32;;;;;;;4.03;3.08;;;;;;;5.02;100.00;98375.75;6108753;19;20916;-76
2024/04/20 08:33:33;;;;;;;3.78;3.25;;;;;;;5.21;100.00;98377.94;6107923;19;20015;-75
2024/04/20 08:35:34;;;;;;;3.15;2.58;;;;;;;5.24;100.00;98379.16;6107548;19;20022;-75
2024/04/20 08:37:36;;;;;;;3.13;2.75;;;;;;;5.24;100.00;98379.97;6108161;19;20011;-75
2024/04/20 08:39:37;;;;;;;;;;;;;;;5.21;100.00;98388.91;6097877;19;20038;-75
2024/04/20 08:41:47;;;;;;;4.95;3.13;;;;;;;5.16;100.00;98391.88;6106984;19;20379;-75
2024/04/20 08:43:50;;;;;;;5.13;3.92;;;;;;;5.18;100.00;98383.28;6109292;19;20458;-75
2024/04/20 08:45:53;;;;;;;3.88;1.45;;;;;;;5.19;100.00;98393.91;6108951;19;20716;-76
2024/04/20 08:47:53;;;;;;;4.65;2.90;;;;;;;5.19;100.00;98399.38;6107867;19;20480;-75
2024/04/20 08:49:54;;;;;;;3.95;2.22;;;;;;;4.93;100.00;98398.94;6105462;19;20007;-74
2024/04/20 08:51:55;;;;;;;4.57;2.55;;;;;;;4.89;100.00;98406.28;6108933;19;20051;-74
2024/04/20 08:53:56;;;;;;;2.40;1.92;;;;;;;4.86;100.00;98406.94;6108546;19;20043;-74
2024/04/20 08:55:57;;;;;;;3.97;3.13;;;;;;;4.80;100.00;98409.13;6107137;19;20526;-75
2024/04/20 08:57:58;;;;;;;4.65;2.72;;;;;;;4.82;100.00;98411.50;6104494;19;20393;-76
2024/04/20 08:59:59;;;;;;;3.15;2.45;;;;;;;4.86;100.00;98415.16;6106261;19;20070;-75
2024/04/20 09:02:03;;;;;;;4.43;2.50;;;;;;;4.81;100.00;98431.84;6106864;19;20016;-75
2024/04/20 09:04:04;;;;;;;4.30;2.25;;;;;;;4.88;100.00;98429.31;6104510;19;20007;-75
2024/04/20 09:06:06;;;;;;;3.90;2.15;;;;;;;4.90;100.00;98433.34;6105844;19;20003;-74
2024/04/20 09:08:07;;;;;;;5.53;2.97;;;;;;;4.87;100.00;98430.47;6104147;19;20015;-75
2024/04/20 09:10:07;;;;;;;6.22;3.20;;;;;;;4.94;100.00;98422.47;6105584;19;20389;-75
2024/04/20 09:12:08;;;;;;;11.32;6.18;;;;;;;5.14;100.00;98424.31;6106227;19;20066;-75
2024/04/20 09:14:08;;;;;;;9.27;4.78;;;;;;;5.17;100.00;98442.03;6105843;19;20006;-75
2024/04/20 09:16:09;;;;;;;5.30;3.42;;;;;;;5.12;100.00;98431.28;6104088;19;20067;-74
2024/04/20 09:18:09;;;;;;;5.72;2.53;;;;;;;5.19;100.00;98446.03;6106563;19;20006;-74
2024/04/20 09:20:12;;;;;;;4.43;2.67;;;;;;;5.20;100.00;98442.13;6107671;19;20007;-75
2024/04/20 09:22:14;;;;;;;1.98;1.77;;;;;;;5.28;100.00;98438.47;6107137;19;20025;-75
2024/04/20 09:24:16;;;;;;;2.47;2.05;;;;;;;5.39;100.00;98449.00;6107923;19;20010;-75
2024/04/20 09:26:21;;;;;;;5.68;3.92;;;;;;;5.35;100.00;98452.41;6107505;19;20078;-75
2024/04/20 09:28:22;;;;;;;3.40;2.60;;;;;;;5.33;100.00;98448.41;6107754;19;20018;-74